sensor_id;sensor_type;location;lat;lon;timestamp;P1;durP1;ratioP1;P2;durP2;ratioP2
14770;SDS011;7477;45.222;5.688;2022-10-16T00:03:03;3.13;;;2.35;;
14770;SDS011;7477;45.222;5.688;2022-10-16T00:06:23;3.85;;;2.33;;
14770;SDS011;7477;45.222;5.688;2022-10-16T00:09:45;3.17;;;2.38;;
14770;SDS011;7477;45.222;5.688;2022-10-16T00:13:05;3.70;;;2.25;;
14770;SDS011;7477;45.222;5.688;2022-10-16T00:16:25;3.30;;;2.70;;
14770;SDS011;7477;45.222;5.688;2022-10-16T00:19:46;3.50;;;2.65;;
14770;SDS011;7477;45.222;5.688;2022-10-16T00:23:05;5.57;;;2.47;;
14770;SDS011;7477;45.222;5.688;2022-10-16T00:26:24;4.35;;;2.72;;
14770;SDS011;7477;45.222;5.688;2022-10-16T00:29:44;3.03;;;2.63;;
14770;SDS011;7477;45.222;5.688;2022-10-16T00:33:08;3.25;;;2.40;;
14770;SDS011;7477;45.222;5.688;2022-10-16T00:36:27;5.53;;;2.50;;
14770;SDS011;7477;45.222;5.688;2022-10-16T00:39:46;3.25;;;2.17;;
14770;SDS011;7477;45.222;5.688;2022-10-16T00:43:12;5.10;;;2.53;;
14770;SDS011;7477;45.222;5.688;2022-10-16T00:46:52;5.22;;;2.47;;
14770;SDS011;7477;45.222;5.688;2022-10-16T00:50:22;7.65;;;3.00;;
14770;SDS011;7477;45.222;5.688;2022-10-16T00:53:49;4.25;;;2.60;;
14770;SDS011;7477;45.222;5.688;2022-10-16T00:57:09;5.43;;;2.97;;
14770;SDS011;7477;45.222;5.688;2022-10-16T01:00:28;3.58;;;2.38;;
14770;SDS011;7477;45.222;5.688;2022-10-16T01:03:48;4.15;;;2.38;;
14770;SDS011;7477;45.222;5.688;2022-10-16T01:10:59;3.65;;;2.55;;
14770;SDS011;7477;45.222;5.688;2022-10-16T01:14:26;7.50;;;3.03;;
14770;SDS011;7477;45.222;5.688;2022-10-16T01:21:33;7.22;;;2.88;;
14770;SDS011;7477;45.222;5.688;2022-10-16T01:24:57;4.32;;;2.95;;
14770;SDS011;7477;45.222;5.688;2022-10-16T01:28:22;3.30;;;2.55;;
14770;SDS011;7477;45.222;5.688;2022-10-16T01:31:50;4.75;;;2.83;;
14770;SDS011;7477;45.222;5.688;2022-10-16T01:35:38;3.90;;;2.90;;
14770;SDS011;7477;45.222;5.688;2022-10-16T01:39:01;4.47;;;2.95;;
14770;SDS011;7477;45.222;5.688;2022-10-16T01:42:22;8.30;;;2.80;;
14770;SDS011;7477;45.222;5.688;2022-10-16T01:45:45;2.85;;;2.47;;
14770;SDS011;7477;45.222;5.688;2022-10-16T01:49:05;5.35;;;2.63;;
14770;SDS011;7477;45.222;5.688;2022-10-16T01:52:26;8.20;;;2.95;;
14770;SDS011;7477;45.222;5.688;2022-10-16T01:55:47;4.05;;;2.80;;
14770;SDS011;7477;45.222;5.688;2022-10-16T01:59:13;4.20;;;3.00;;
14770;SDS011;7477;45.222;5.688;2022-10-16T02:02:43;5.68;;;3.08;;
14770;SDS011;7477;45.222;5.688;2022-10-16T02:06:06;4.18;;;2.90;;
14770;SDS011;7477;45.222;5.688;2022-10-16T02:09:26;4.82;;;3.05;;
14770;SDS011;7477;45.222;5.688;2022-10-16T02:12:48;4.30;;;3.03;;
14770;SDS011;7477;45.222;5.688;2022-10-16T02:16:12;5.35;;;3.13;;
14770;SDS011;7477;45.222;5.688;2022-10-16T02:19:32;4.68;;;2.58;;
14770;SDS011;7477;45.222;5.688;2022-10-16T02:22:52;6.20;;;3.00;;
14770;SDS011;7477;45.222;5.688;2022-10-16T02:26:15;3.50;;;2.95;;
14770;SDS011;7477;45.222;5.688;2022-10-16T02:29:44;5.68;;;2.67;;
14770;SDS011;7477;45.222;5.688;2022-10-16T02:33:09;4.72;;;2.40;;
14770;SDS011;7477;45.222;5.688;2022-10-16T02:36:32;3.67;;;2.50;;
14770;SDS011;7477;45.222;5.688;2022-10-16T02:39:53;3.10;;;2.58;;
14770;SDS011;7477;45.222;5.688;2022-10-16T02:43:14;7.63;;;2.85;;
14770;SDS011;7477;45.222;5.688;2022-10-16T02:46:34;4.00;;;2.83;;
14770;SDS011;7477;45.222;5.688;2022-10-16T02:49:53;2.60;;;2.40;;
14770;SDS011;7477;45.222;5.688;2022-10-16T02:53:13;3.70;;;2.55;;
14770;SDS011;7477;45.222;5.688;2022-10-16T02:56:32;3.63;;;2.50;;
14770;SDS011;7477;45.222;5.688;2022-10-16T02:59:51;6.32;;;2.90;;
14770;SDS011;7477;45.222;5.688;2022-10-16T03:03:11;3.30;;;2.28;;
14770;SDS011;7477;45.222;5.688;2022-10-16T03:06:30;3.10;;;2.25;;
14770;SDS011;7477;45.222;5.688;2022-10-16T03:09:50;3.75;;;2.63;;
14770;SDS011;7477;45.222;5.688;2022-10-16T03:13:09;4.03;;;2.70;;
14770;SDS011;7477;45.222;5.688;2022-10-16T03:16:28;10.73;;;3.03;;
14770;SDS011;7477;45.222;5.688;2022-10-16T03:19:48;7.05;;;2.70;;
14770;SDS011;7477;45.222;5.688;2022-10-16T03:23:07;3.85;;;2.50;;
14770;SDS011;7477;45.222;5.688;2022-10-16T03:26:27;8.40;;;3.03;;
14770;SDS011;7477;45.222;5.688;2022-10-16T03:29:46;8.55;;;2.83;;
14770;SDS011;7477;45.222;5.688;2022-10-16T03:33:05;3.47;;;2.70;;
14770;SDS011;7477;45.222;5.688;2022-10-16T03:36:24;3.25;;;2.60;;
14770;SDS011;7477;45.222;5.688;2022-10-16T03:39:44;6.35;;;2.55;;
14770;SDS011;7477;45.222;5.688;2022-10-16T03:43:03;2.70;;;2.50;;
14770;SDS011;7477;45.222;5.688;2022-10-16T03:46:22;3.92;;;2.42;;
14770;SDS011;7477;45.222;5.688;2022-10-16T03:49:42;4.32;;;2.25;;
14770;SDS011;7477;45.222;5.688;2022-10-16T03:53:01;3.45;;;2.15;;
14770;SDS011;7477;45.222;5.688;2022-10-16T03:56:20;6.60;;;2.50;;
14770;SDS011;7477;45.222;5.688;2022-10-16T03:59:40;7.78;;;2.70;;
14770;SDS011;7477;45.222;5.688;2022-10-16T04:02:59;3.15;;;2.65;;
14770;SDS011;7477;45.222;5.688;2022-10-16T04:06:18;4.20;;;2.22;;
14770;SDS011;7477;45.222;5.688;2022-10-16T04:09:38;4.38;;;2.20;;
14770;SDS011;7477;45.222;5.688;2022-10-16T04:12:57;5.45;;;2.58;;
14770;SDS011;7477;45.222;5.688;2022-10-16T04:16:17;4.57;;;2.42;;
14770;SDS011;7477;45.222;5.688;2022-10-16T04:19:36;4.82;;;2.50;;
14770;SDS011;7477;45.222;5.688;2022-10-16T04:22:56;5.80;;;2.58;;
14770;SDS011;7477;45.222;5.688;2022-10-16T04:26:15;3.65;;;2.40;;
14770;SDS011;7477;45.222;5.688;2022-10-16T04:29:34;8.10;;;2.45;;
14770;SDS011;7477;45.222;5.688;2022-10-16T04:32:53;6.30;;;2.85;;
14770;SDS011;7477;45.222;5.688;2022-10-16T04:36:13;3.53;;;2.65;;
14770;SDS011;7477;45.222;5.688;2022-10-16T04:39:32;3.30;;;2.40;;
14770;SDS011;7477;45.222;5.688;2022-10-16T04:42:52;3.10;;;2.30;;
14770;SDS011;7477;45.222;5.688;2022-10-16T04:46:11;4.40;;;2.53;;
14770;SDS011;7477;45.222;5.688;2022-10-16T04:49:30;2.97;;;2.08;;
14770;SDS011;7477;45.222;5.688;2022-10-16T04:52:49;4.20;;;2.35;;
14770;SDS011;7477;45.222;5.688;2022-10-16T04:56:08;2.70;;;2.28;;
14770;SDS011;7477;45.222;5.688;2022-10-16T04:59:28;2.47;;;2.28;;
14770;SDS011;7477;45.222;5.688;2022-10-16T05:02:47;3.65;;;2.35;;
14770;SDS011;7477;45.222;5.688;2022-10-16T05:06:08;3.60;;;2.10;;
14770;SDS011;7477;45.222;5.688;2022-10-16T05:09:27;4.10;;;2.10;;
14770;SDS011;7477;45.222;5.688;2022-10-16T05:12:46;3.33;;;2.17;;
14770;SDS011;7477;45.222;5.688;2022-10-16T05:16:06;2.88;;;2.58;;
14770;SDS011;7477;45.222;5.688;2022-10-16T05:19:26;7.10;;;2.35;;
14770;SDS011;7477;45.222;5.688;2022-10-16T05:22:45;4.75;;;2.10;;
14770;SDS011;7477;45.222;5.688;2022-10-16T05:26:04;3.95;;;2.03;;
14770;SDS011;7477;45.222;5.688;2022-10-16T05:29:23;4.82;;;2.40;;
14770;SDS011;7477;45.222;5.688;2022-10-16T05:32:47;4.03;;;2.40;;
14770;SDS011;7477;45.222;5.688;2022-10-16T05:36:08;2.83;;;1.92;;
14770;SDS011;7477;45.222;5.688;2022-10-16T05:39:28;3.67;;;2.58;;
14770;SDS011;7477;45.222;5.688;2022-10-16T05:42:47;2.42;;;2.17;;
14770;SDS011;7477;45.222;5.688;2022-10-16T05:46:06;2.22;;;2.03;;
14770;SDS011;7477;45.222;5.688;2022-10-16T05:49:25;3.70;;;2.47;;
14770;SDS011;7477;45.222;5.688;2022-10-16T05:52:44;4.28;;;2.17;;
14770;SDS011;7477;45.222;5.688;2022-10-16T05:56:04;3.90;;;1.85;;
14770;SDS011;7477;45.222;5.688;2022-10-16T05:59:25;4.57;;;2.05;;
14770;SDS011;7477;45.222;5.688;2022-10-16T06:02:44;2.55;;;2.17;;
14770;SDS011;7477;45.222;5.688;2022-10-16T06:06:13;5.07;;;1.88;;
14770;SDS011;7477;45.222;5.688;2022-10-16T06:09:38;4.30;;;2.55;;
14770;SDS011;7477;45.222;5.688;2022-10-16T06:12:57;3.53;;;2.05;;
14770;SDS011;7477;45.222;5.688;2022-10-16T06:16:16;4.93;;;2.58;;
14770;SDS011;7477;45.222;5.688;2022-10-16T06:19:35;3.03;;;2.67;;
14770;SDS011;7477;45.222;5.688;2022-10-16T06:22:54;4.82;;;2.90;;
14770;SDS011;7477;45.222;5.688;2022-10-16T06:26:14;4.25;;;2.75;;
14770;SDS011;7477;45.222;5.688;2022-10-16T06:29:36;8.02;;;2.65;;
14770;SDS011;7477;45.222;5.688;2022-10-16T06:32:55;5.32;;;2.70;;
14770;SDS011;7477;45.222;5.688;2022-10-16T06:36:15;3.85;;;2.80;;
14770;SDS011;7477;45.222;5.688;2022-10-16T06:39:35;3.53;;;2.88;;
14770;SDS011;7477;45.222;5.688;2022-10-16T06:42:55;3.13;;;2.67;;
14770;SDS011;7477;45.222;5.688;2022-10-16T06:46:15;4.40;;;3.10;;
14770;SDS011;7477;45.222;5.688;2022-10-16T06:49:35;5.43;;;3.35;;
14770;SDS011;7477;45.222;5.688;2022-10-16T06:52:55;4.78;;;3.58;;
14770;SDS011;7477;45.222;5.688;2022-10-16T06:56:20;6.78;;;3.92;;
14770;SDS011;7477;45.222;5.688;2022-10-16T06:59:40;4.93;;;3.47;;
14770;SDS011;7477;45.222;5.688;2022-10-16T07:03:00;3.95;;;3.47;;
14770;SDS011;7477;45.222;5.688;2022-10-16T07:06:19;3.65;;;3.03;;
14770;SDS011;7477;45.222;5.688;2022-10-16T07:09:40;5.47;;;3.33;;
14770;SDS011;7477;45.222;5.688;2022-10-16T07:12:59;8.60;;;3.55;;
14770;SDS011;7477;45.222;5.688;2022-10-16T07:16:19;4.30;;;2.92;;
14770;SDS011;7477;45.222;5.688;2022-10-16T07:19:41;4.95;;;3.00;;
14770;SDS011;7477;45.222;5.688;2022-10-16T07:23:00;6.15;;;2.80;;
14770;SDS011;7477;45.222;5.688;2022-10-16T07:26:19;7.93;;;2.90;;
14770;SDS011;7477;45.222;5.688;2022-10-16T07:29:39;5.03;;;2.78;;
14770;SDS011;7477;45.222;5.688;2022-10-16T07:32:58;6.38;;;2.80;;
14770;SDS011;7477;45.222;5.688;2022-10-16T07:36:18;3.33;;;2.63;;
14770;SDS011;7477;45.222;5.688;2022-10-16T07:39:38;5.57;;;2.55;;
14770;SDS011;7477;45.222;5.688;2022-10-16T07:42:57;4.60;;;2.65;;
14770;SDS011;7477;45.222;5.688;2022-10-16T07:46:17;2.83;;;2.45;;
14770;SDS011;7477;45.222;5.688;2022-10-16T07:49:38;6.55;;;3.08;;
14770;SDS011;7477;45.222;5.688;2022-10-16T07:52:57;3.97;;;2.67;;
14770;SDS011;7477;45.222;5.688;2022-10-16T07:56:16;6.45;;;3.05;;
14770;SDS011;7477;45.222;5.688;2022-10-16T07:59:36;5.63;;;2.65;;
14770;SDS011;7477;45.222;5.688;2022-10-16T08:02:56;3.22;;;2.58;;
14770;SDS011;7477;45.222;5.688;2022-10-16T08:06:19;2.92;;;2.38;;
14770;SDS011;7477;45.222;5.688;2022-10-16T08:09:39;3.67;;;2.55;;
14770;SDS011;7477;45.222;5.688;2022-10-16T08:12:59;4.18;;;2.55;;
14770;SDS011;7477;45.222;5.688;2022-10-16T08:16:18;2.78;;;2.00;;
14770;SDS011;7477;45.222;5.688;2022-10-16T08:19:37;3.28;;;2.00;;
14770;SDS011;7477;45.222;5.688;2022-10-16T08:22:58;2.17;;;1.98;;
14770;SDS011;7477;45.222;5.688;2022-10-16T08:26:18;4.75;;;2.35;;
14770;SDS011;7477;45.222;5.688;2022-10-16T08:29:38;2.65;;;2.00;;
14770;SDS011;7477;45.222;5.688;2022-10-16T08:32:57;4.38;;;2.10;;
14770;SDS011;7477;45.222;5.688;2022-10-16T08:36:17;3.88;;;2.33;;
14770;SDS011;7477;45.222;5.688;2022-10-16T08:39:36;4.10;;;2.13;;
14770;SDS011;7477;45.222;5.688;2022-10-16T08:43:06;4.53;;;2.03;;
14770;SDS011;7477;45.222;5.688;2022-10-16T08:53:20;4.78;;;2.80;;
14770;SDS011;7477;45.222;5.688;2022-10-16T08:56:55;5.43;;;2.22;;
14770;SDS011;7477;45.222;5.688;2022-10-16T09:00:16;2.63;;;1.98;;
14770;SDS011;7477;45.222;5.688;2022-10-16T09:18:48;3.10;;;1.90;;
14770;SDS011;7477;45.222;5.688;2022-10-16T09:22:27;5.43;;;2.20;;
14770;SDS011;7477;45.222;5.688;2022-10-16T09:25:48;3.72;;;2.08;;
14770;SDS011;7477;45.222;5.688;2022-10-16T09:29:13;5.30;;;2.78;;
14770;SDS011;7477;45.222;5.688;2022-10-16T09:32:34;2.15;;;1.95;;
14770;SDS011;7477;45.222;5.688;2022-10-16T09:35:54;5.20;;;2.42;;
14770;SDS011;7477;45.222;5.688;2022-10-16T09:39:17;4.55;;;2.05;;
14770;SDS011;7477;45.222;5.688;2022-10-16T09:42:36;2.92;;;2.20;;
14770;SDS011;7477;45.222;5.688;2022-10-16T09:52:40;4.07;;;2.28;;
14770;SDS011;7477;45.222;5.688;2022-10-16T09:55:59;6.78;;;2.10;;
14770;SDS011;7477;45.222;5.688;2022-10-16T09:59:20;3.28;;;2.40;;
14770;SDS011;7477;45.222;5.688;2022-10-16T10:02:42;3.25;;;2.50;;
14770;SDS011;7477;45.222;5.688;2022-10-16T10:06:05;6.00;;;3.28;;
14770;SDS011;7477;45.222;5.688;2022-10-16T10:09:39;5.30;;;4.20;;
14770;SDS011;7477;45.222;5.688;2022-10-16T10:13:02;6.03;;;3.00;;
14770;SDS011;7477;45.222;5.688;2022-10-16T10:16:25;7.10;;;3.40;;
14770;SDS011;7477;45.222;5.688;2022-10-16T10:20:00;7.80;;;3.50;;
14770;SDS011;7477;45.222;5.688;2022-10-16T10:23:41;5.72;;;3.10;;
14770;SDS011;7477;45.222;5.688;2022-10-16T10:27:03;7.43;;;4.85;;
14770;SDS011;7477;45.222;5.688;2022-10-16T10:34:04;6.07;;;3.88;;
14770;SDS011;7477;45.222;5.688;2022-10-16T10:38:16;12.35;;;4.10;;
14770;SDS011;7477;45.222;5.688;2022-10-16T10:52:34;6.95;;;3.35;;
14770;SDS011;7477;45.222;5.688;2022-10-16T11:07:16;4.13;;;2.92;;
14770;SDS011;7477;45.222;5.688;2022-10-16T11:10:59;5.65;;;3.60;;
14770;SDS011;7477;45.222;5.688;2022-10-16T11:14:23;5.53;;;3.70;;
14770;SDS011;7477;45.222;5.688;2022-10-16T11:17:54;4.70;;;3.60;;
14770;SDS011;7477;45.222;5.688;2022-10-16T11:21:36;4.20;;;2.92;;
14770;SDS011;7477;45.222;5.688;2022-10-16T11:25:12;4.50;;;2.88;;
14770;SDS011;7477;45.222;5.688;2022-10-16T11:28:33;3.85;;;3.35;;
14770;SDS011;7477;45.222;5.688;2022-10-16T11:32:06;6.40;;;3.58;;
14770;SDS011;7477;45.222;5.688;2022-10-16T11:42:43;4.05;;;3.08;;
14770;SDS011;7477;45.222;5.688;2022-10-16T11:46:12;7.18;;;3.13;;
14770;SDS011;7477;45.222;5.688;2022-10-16T11:49:36;5.30;;;2.83;;
14770;SDS011;7477;45.222;5.688;2022-10-16T11:56:42;5.03;;;3.05;;
14770;SDS011;7477;45.222;5.688;2022-10-16T12:00:05;17.02;;;3.80;;
14770;SDS011;7477;45.222;5.688;2022-10-16T12:03:48;4.32;;;2.20;;
14770;SDS011;7477;45.222;5.688;2022-10-16T12:07:24;4.80;;;3.00;;
14770;SDS011;7477;45.222;5.688;2022-10-16T12:10:51;9.45;;;3.20;;
14770;SDS011;7477;45.222;5.688;2022-10-16T12:17:37;4.63;;;2.90;;
14770;SDS011;7477;45.222;5.688;2022-10-16T12:20:57;3.47;;;2.10;;
14770;SDS011;7477;45.222;5.688;2022-10-16T12:24:27;5.88;;;2.63;;
14770;SDS011;7477;45.222;5.688;2022-10-16T12:28:05;3.85;;;2.80;;
14770;SDS011;7477;45.222;5.688;2022-10-16T12:31:37;5.45;;;3.30;;
14770;SDS011;7477;45.222;5.688;2022-10-16T12:35:03;4.07;;;2.30;;
14770;SDS011;7477;45.222;5.688;2022-10-16T12:38:25;5.20;;;2.83;;
14770;SDS011;7477;45.222;5.688;2022-10-16T12:42:17;3.97;;;3.22;;
14770;SDS011;7477;45.222;5.688;2022-10-16T12:45:37;4.32;;;2.33;;
14770;SDS011;7477;45.222;5.688;2022-10-16T12:49:14;2.70;;;2.05;;
14770;SDS011;7477;45.222;5.688;2022-10-16T12:52:40;3.45;;;2.30;;
14770;SDS011;7477;45.222;5.688;2022-10-16T13:06:51;4.07;;;2.03;;
14770;SDS011;7477;45.222;5.688;2022-10-16T13:10:47;3.63;;;2.50;;
14770;SDS011;7477;45.222;5.688;2022-10-16T13:18:34;4.20;;;2.53;;
14770;SDS011;7477;45.222;5.688;2022-10-16T13:28:52;3.45;;;1.98;;
14770;SDS011;7477;45.222;5.688;2022-10-16T13:32:11;2.95;;;2.60;;
14770;SDS011;7477;45.222;5.688;2022-10-16T13:35:34;4.25;;;2.33;;
14770;SDS011;7477;45.222;5.688;2022-10-16T13:38:59;3.22;;;2.58;;
14770;SDS011;7477;45.222;5.688;2022-10-16T13:42:39;3.45;;;2.30;;
14770;SDS011;7477;45.222;5.688;2022-10-16T13:46:02;2.65;;;2.45;;
14770;SDS011;7477;45.222;5.688;2022-10-16T13:49:24;5.60;;;2.28;;
14770;SDS011;7477;45.222;5.688;2022-10-16T13:52:43;2.97;;;2.13;;
14770;SDS011;7477;45.222;5.688;2022-10-16T13:56:03;3.35;;;2.30;;
14770;SDS011;7477;45.222;5.688;2022-10-16T13:59:25;4.03;;;2.22;;
14770;SDS011;7477;45.222;5.688;2022-10-16T14:02:54;3.28;;;2.40;;
14770;SDS011;7477;45.222;5.688;2022-10-16T14:06:18;2.58;;;2.17;;
14770;SDS011;7477;45.222;5.688;2022-10-16T14:09:42;2.92;;;2.20;;
14770;SDS011;7477;45.222;5.688;2022-10-16T14:13:06;3.08;;;2.58;;
14770;SDS011;7477;45.222;5.688;2022-10-16T14:16:31;2.72;;;2.30;;
14770;SDS011;7477;45.222;5.688;2022-10-16T14:19:52;3.30;;;2.28;;
14770;SDS011;7477;45.222;5.688;2022-10-16T14:23:33;4.03;;;2.08;;
14770;SDS011;7477;45.222;5.688;2022-10-16T14:26:55;2.25;;;2.10;;
14770;SDS011;7477;45.222;5.688;2022-10-16T14:30:20;2.50;;;2.30;;
14770;SDS011;7477;45.222;5.688;2022-10-16T14:33:40;2.40;;;2.17;;
14770;SDS011;7477;45.222;5.688;2022-10-16T14:37:00;3.45;;;2.22;;
14770;SDS011;7477;45.222;5.688;2022-10-16T14:40:27;3.00;;;2.33;;
14770;SDS011;7477;45.222;5.688;2022-10-16T14:43:54;3.30;;;2.40;;
14770;SDS011;7477;45.222;5.688;2022-10-16T14:47:16;2.60;;;1.88;;
14770;SDS011;7477;45.222;5.688;2022-10-16T14:50:43;2.45;;;2.03;;
14770;SDS011;7477;45.222;5.688;2022-10-16T14:54:04;3.40;;;2.33;;
14770;SDS011;7477;45.222;5.688;2022-10-16T14:57:24;2.50;;;2.30;;
14770;SDS011;7477;45.222;5.688;2022-10-16T15:00:47;2.42;;;2.15;;
14770;SDS011;7477;45.222;5.688;2022-10-16T15:04:08;2.58;;;2.22;;
14770;SDS011;7477;45.222;5.688;2022-10-16T15:07:30;2.08;;;1.95;;
14770;SDS011;7477;45.222;5.688;2022-10-16T15:10:49;4.35;;;2.08;;
14770;SDS011;7477;45.222;5.688;2022-10-16T15:14:13;4.20;;;2.20;;
14770;SDS011;7477;45.222;5.688;2022-10-16T15:17:32;5.38;;;2.90;;
14770;SDS011;7477;45.222;5.688;2022-10-16T15:20:52;1.60;;;1.48;;
14770;SDS011;7477;45.222;5.688;2022-10-16T15:24:12;2.25;;;1.50;;
14770;SDS011;7477;45.222;5.688;2022-10-16T15:27:32;1.40;;;1.30;;
14770;SDS011;7477;45.222;5.688;2022-10-16T15:30:58;1.98;;;1.48;;
14770;SDS011;7477;45.222;5.688;2022-10-16T15:34:17;1.92;;;1.70;;
14770;SDS011;7477;45.222;5.688;2022-10-16T15:37:38;3.75;;;2.00;;
14770;SDS011;7477;45.222;5.688;2022-10-16T15:40:57;2.00;;;1.52;;
14770;SDS011;7477;45.222;5.688;2022-10-16T15:44:17;1.60;;;1.50;;
14770;SDS011;7477;45.222;5.688;2022-10-16T15:47:36;2.25;;;1.83;;
14770;SDS011;7477;45.222;5.688;2022-10-16T15:50:56;2.85;;;1.55;;
14770;SDS011;7477;45.222;5.688;2022-10-16T15:54:16;3.63;;;1.55;;
14770;SDS011;7477;45.222;5.688;2022-10-16T15:57:37;8.23;;;2.72;;
14770;SDS011;7477;45.222;5.688;2022-10-16T16:00:57;3.53;;;2.10;;
14770;SDS011;7477;45.222;5.688;2022-10-16T16:04:20;1.85;;;1.73;;
14770;SDS011;7477;45.222;5.688;2022-10-16T16:07:39;2.83;;;2.03;;
14770;SDS011;7477;45.222;5.688;2022-10-16T16:10:59;3.22;;;1.83;;
14770;SDS011;7477;45.222;5.688;2022-10-16T16:14:21;2.72;;;2.00;;
14770;SDS011;7477;45.222;5.688;2022-10-16T16:17:40;2.13;;;1.85;;
14770;SDS011;7477;45.222;5.688;2022-10-16T16:20:59;2.17;;;1.98;;
14770;SDS011;7477;45.222;5.688;2022-10-16T16:24:18;1.98;;;1.80;;
14770;SDS011;7477;45.222;5.688;2022-10-16T16:27:38;5.35;;;2.33;;
14770;SDS011;7477;45.222;5.688;2022-10-16T16:30:58;3.50;;;2.22;;
14770;SDS011;7477;45.222;5.688;2022-10-16T16:34:17;4.20;;;2.05;;
14770;SDS011;7477;45.222;5.688;2022-10-16T16:37:36;3.55;;;2.25;;
14770;SDS011;7477;45.222;5.688;2022-10-16T16:40:55;2.17;;;1.75;;
14770;SDS011;7477;45.222;5.688;2022-10-16T16:44:15;2.65;;;1.90;;
14770;SDS011;7477;45.222;5.688;2022-10-16T16:47:36;2.45;;;2.00;;
14770;SDS011;7477;45.222;5.688;2022-10-16T16:51:02;3.25;;;2.28;;
14770;SDS011;7477;45.222;5.688;2022-10-16T16:54:33;2.50;;;1.92;;
14770;SDS011;7477;45.222;5.688;2022-10-16T16:57:52;2.05;;;1.88;;
14770;SDS011;7477;45.222;5.688;2022-10-16T17:01:12;2.20;;;2.00;;
14770;SDS011;7477;45.222;5.688;2022-10-16T17:04:32;2.28;;;1.58;;
14770;SDS011;7477;45.222;5.688;2022-10-16T17:07:51;2.42;;;1.83;;
14770;SDS011;7477;45.222;5.688;2022-10-16T17:11:14;3.75;;;2.00;;
14770;SDS011;7477;45.222;5.688;2022-10-16T17:14:41;2.60;;;1.90;;
14770;SDS011;7477;45.222;5.688;2022-10-16T17:18:00;3.08;;;2.25;;
14770;SDS011;7477;45.222;5.688;2022-10-16T17:21:19;3.85;;;2.00;;
14770;SDS011;7477;45.222;5.688;2022-10-16T17:24:38;3.10;;;1.88;;
14770;SDS011;7477;45.222;5.688;2022-10-16T17:27:58;2.00;;;1.73;;
14770;SDS011;7477;45.222;5.688;2022-10-16T17:31:18;2.67;;;1.67;;
14770;SDS011;7477;45.222;5.688;2022-10-16T17:34:39;2.17;;;1.80;;
14770;SDS011;7477;45.222;5.688;2022-10-16T17:37:58;2.38;;;1.70;;
14770;SDS011;7477;45.222;5.688;2022-10-16T17:41:19;4.80;;;2.00;;
14770;SDS011;7477;45.222;5.688;2022-10-16T17:44:40;4.70;;;2.30;;
14770;SDS011;7477;45.222;5.688;2022-10-16T17:47:59;3.20;;;2.00;;
14770;SDS011;7477;45.222;5.688;2022-10-16T17:51:19;4.45;;;2.42;;
14770;SDS011;7477;45.222;5.688;2022-10-16T17:54:40;9.18;;;2.60;;
14770;SDS011;7477;45.222;5.688;2022-10-16T17:57:59;2.60;;;2.40;;
14770;SDS011;7477;45.222;5.688;2022-10-16T18:04:40;4.47;;;1.92;;
14770;SDS011;7477;45.222;5.688;2022-10-16T18:07:59;2.60;;;2.22;;
14770;SDS011;7477;45.222;5.688;2022-10-16T18:11:18;5.07;;;2.63;;
14770;SDS011;7477;45.222;5.688;2022-10-16T18:14:39;3.30;;;2.45;;
14770;SDS011;7477;45.222;5.688;2022-10-16T18:17:58;3.45;;;2.10;;
14770;SDS011;7477;45.222;5.688;2022-10-16T18:21:18;3.05;;;2.08;;
14770;SDS011;7477;45.222;5.688;2022-10-16T18:24:37;3.50;;;2.00;;
14770;SDS011;7477;45.222;5.688;2022-10-16T18:27:56;2.63;;;1.88;;
14770;SDS011;7477;45.222;5.688;2022-10-16T18:31:17;4.05;;;2.05;;
14770;SDS011;7477;45.222;5.688;2022-10-16T18:34:36;3.28;;;2.13;;
14770;SDS011;7477;45.222;5.688;2022-10-16T18:37:55;3.65;;;2.05;;
14770;SDS011;7477;45.222;5.688;2022-10-16T18:41:18;1.88;;;1.70;;
14770;SDS011;7477;45.222;5.688;2022-10-16T18:44:37;3.83;;;2.30;;
14770;SDS011;7477;45.222;5.688;2022-10-16T18:47:56;8.88;;;2.75;;
14770;SDS011;7477;45.222;5.688;2022-10-16T18:51:49;6.65;;;2.20;;
14770;SDS011;7477;45.222;5.688;2022-10-16T18:55:02;10.38;;;3.17;;
14770;SDS011;7477;45.222;5.688;2022-10-16T18:58:22;10.80;;;3.13;;
14770;SDS011;7477;45.222;5.688;2022-10-16T19:01:41;6.68;;;2.72;;
14770;SDS011;7477;45.222;5.688;2022-10-16T19:05:01;6.38;;;2.72;;
14770;SDS011;7477;45.222;5.688;2022-10-16T19:08:21;13.00;;;3.22;;
14770;SDS011;7477;45.222;5.688;2022-10-16T19:11:41;8.30;;;3.10;;
14770;SDS011;7477;45.222;5.688;2022-10-16T19:15:01;8.45;;;2.60;;
14770;SDS011;7477;45.222;5.688;2022-10-16T19:18:20;4.78;;;2.60;;
14770;SDS011;7477;45.222;5.688;2022-10-16T19:21:40;6.55;;;3.42;;
14770;SDS011;7477;45.222;5.688;2022-10-16T19:24:59;6.95;;;2.92;;
14770;SDS011;7477;45.222;5.688;2022-10-16T19:28:18;6.28;;;3.38;;
14770;SDS011;7477;45.222;5.688;2022-10-16T19:31:38;7.03;;;2.63;;
14770;SDS011;7477;45.222;5.688;2022-10-16T19:34:58;5.68;;;3.17;;
14770;SDS011;7477;45.222;5.688;2022-10-16T19:38:17;5.32;;;2.88;;
14770;SDS011;7477;45.222;5.688;2022-10-16T19:41:37;6.10;;;3.50;;
14770;SDS011;7477;45.222;5.688;2022-10-16T19:44:56;4.88;;;3.60;;
14770;SDS011;7477;45.222;5.688;2022-10-16T19:48:15;4.30;;;3.17;;
14770;SDS011;7477;45.222;5.688;2022-10-16T19:51:35;7.50;;;3.10;;
14770;SDS011;7477;45.222;5.688;2022-10-16T19:54:54;5.10;;;3.28;;
14770;SDS011;7477;45.222;5.688;2022-10-16T19:58:15;3.83;;;3.05;;
14770;SDS011;7477;45.222;5.688;2022-10-16T20:01:34;6.50;;;3.17;;
14770;SDS011;7477;45.222;5.688;2022-10-16T20:04:54;5.00;;;3.70;;
14770;SDS011;7477;45.222;5.688;2022-10-16T20:08:13;4.28;;;3.28;;
14770;SDS011;7477;45.222;5.688;2022-10-16T20:11:33;6.32;;;3.42;;
14770;SDS011;7477;45.222;5.688;2022-10-16T20:14:53;7.95;;;3.65;;
14770;SDS011;7477;45.222;5.688;2022-10-16T20:18:13;7.95;;;4.00;;
14770;SDS011;7477;45.222;5.688;2022-10-16T20:21:33;4.35;;;3.15;;
14770;SDS011;7477;45.222;5.688;2022-10-16T20:24:53;6.32;;;3.42;;
14770;SDS011;7477;45.222;5.688;2022-10-16T20:28:13;4.68;;;3.88;;
14770;SDS011;7477;45.222;5.688;2022-10-16T20:31:35;5.05;;;3.00;;
14770;SDS011;7477;45.222;5.688;2022-10-16T20:34:55;4.07;;;3.67;;
14770;SDS011;7477;45.222;5.688;2022-10-16T20:38:14;4.68;;;3.42;;
14770;SDS011;7477;45.222;5.688;2022-10-16T20:41:35;7.28;;;3.55;;
14770;SDS011;7477;45.222;5.688;2022-10-16T20:44:54;4.13;;;3.40;;
14770;SDS011;7477;45.222;5.688;2022-10-16T20:48:14;3.90;;;3.40;;
14770;SDS011;7477;45.222;5.688;2022-10-16T20:51:33;10.38;;;4.63;;
14770;SDS011;7477;45.222;5.688;2022-10-16T20:54:52;7.00;;;4.28;;
14770;SDS011;7477;45.222;5.688;2022-10-16T20:58:11;4.18;;;3.35;;
14770;SDS011;7477;45.222;5.688;2022-10-16T21:01:31;3.92;;;3.47;;
14770;SDS011;7477;45.222;5.688;2022-10-16T21:04:53;6.40;;;3.42;;
14770;SDS011;7477;45.222;5.688;2022-10-16T21:08:12;4.53;;;3.88;;
14770;SDS011;7477;45.222;5.688;2022-10-16T21:11:32;4.70;;;4.18;;
14770;SDS011;7477;45.222;5.688;2022-10-16T21:14:53;3.90;;;3.38;;
14770;SDS011;7477;45.222;5.688;2022-10-16T21:18:12;4.80;;;3.67;;
14770;SDS011;7477;45.222;5.688;2022-10-16T21:21:33;5.80;;;3.38;;
14770;SDS011;7477;45.222;5.688;2022-10-16T21:24:53;6.20;;;3.63;;
14770;SDS011;7477;45.222;5.688;2022-10-16T21:28:12;5.65;;;3.22;;
14770;SDS011;7477;45.222;5.688;2022-10-16T21:31:32;4.70;;;3.42;;
14770;SDS011;7477;45.222;5.688;2022-10-16T21:34:52;5.32;;;3.75;;
14770;SDS011;7477;45.222;5.688;2022-10-16T21:38:11;7.22;;;3.20;;
14770;SDS011;7477;45.222;5.688;2022-10-16T21:41:31;8.55;;;3.75;;
14770;SDS011;7477;45.222;5.688;2022-10-16T21:44:50;5.18;;;3.58;;
14770;SDS011;7477;45.222;5.688;2022-10-16T21:48:10;6.45;;;4.03;;
14770;SDS011;7477;45.222;5.688;2022-10-16T21:51:30;3.67;;;3.20;;
14770;SDS011;7477;45.222;5.688;2022-10-16T21:54:52;5.80;;;3.47;;
14770;SDS011;7477;45.222;5.688;2022-10-16T21:58:11;4.97;;;2.97;;
14770;SDS011;7477;45.222;5.688;2022-10-16T22:01:30;4.93;;;3.28;;
14770;SDS011;7477;45.222;5.688;2022-10-16T22:04:49;3.88;;;3.47;;
14770;SDS011;7477;45.222;5.688;2022-10-16T22:08:09;4.90;;;3.38;;
14770;SDS011;7477;45.222;5.688;2022-10-16T22:11:29;4.65;;;3.95;;
14770;SDS011;7477;45.222;5.688;2022-10-16T22:14:54;4.13;;;3.55;;
14770;SDS011;7477;45.222;5.688;2022-10-16T22:18:13;7.85;;;4.05;;